Time;durP1;ratioP1;P1;durP2;ratioP2;P2;SDS_P1;SDS_P2;PMS_P1;PMS_P2;Temp;Humidity;BMP_temperature;BMP_pressure;BME280_temperature;BME280_humidity;BME280_pressure;Samples;Min_cycle;Max_cycle;Signal;HPM_P1;HPM_P2
2022/03/06 00:00:40;;;;;;;27.37;13.13;;;-0.20;75.80;;;;;;5040515;28;21638;-45
2022/03/06 00:03:08;;;;;;;26.10;14.17;;;-0.10;75.80;;;;;;5042308;28;20991;-45
2022/03/06 00:05:35;;;;;;;30.17;14.50;;;-0.10;75.70;;;;;;5039353;28;20877;-45
2022/03/06 00:08:02;;;;;;;30.83;14.43;;;-0.10;75.70;;;;;;5044766;28;20479;-45
2022/03/06 00:10:29;;;;;;;32.83;14.67;;;-0.10;75.80;;;;;;5041401;28;20538;-45
2022/03/06 00:12:56;;;;;;;32.60;14.80;;;-0.10;75.70;;;;;;5046372;28;20488;-45
2022/03/06 00:15:25;;;;;;;29.07;14.80;;;-0.10;75.50;;;;;;5044415;28;20490;-45
2022/03/06 00:17:53;;;;;;;28.33;13.60;;;-0.10;75.20;;;;;;5038440;28;20830;-45
2022/03/06 00:20:21;;;;;;;34.50;14.90;;;0.00;74.90;;;;;;5074852;28;20489;-46
2022/03/06 00:22:47;;;;;;;28.17;13.43;;;0.00;74.80;;;;;;5050170;28;20475;-45
2022/03/06 00:25:14;;;;;;;32.23;14.43;;;0.00;74.50;;;;;;5060875;28;21002;-45
2022/03/06 00:27:41;;;;;;;33.17;15.73;;;-0.10;74.70;;;;;;5045290;28;20471;-45
2022/03/06 00:30:08;;;;;;;27.60;14.10;;;-0.10;74.70;;;;;;5043007;28;20484;-44
2022/03/06 00:32:35;;;;;;;21.40;12.07;;;-0.10;74.70;;;;;;5044199;28;20579;-53
2022/03/06 00:35:02;;;;;;;31.43;13.50;;;-0.10;74.60;;;;;;5045741;28;20469;-45
2022/03/06 00:37:30;;;;;;;23.93;12.40;;;-0.20;74.80;;;;;;5043711;28;21016;-45
2022/03/06 00:39:57;;;;;;;23.50;12.80;;;-0.20;74.90;;;;;;5041561;28;20484;-45
2022/03/06 00:42:24;;;;;;;28.43;13.10;;;-0.20;74.70;;;;;;5046126;28;21050;-45
2022/03/06 00:44:50;;;;;;;28.67;14.60;;;-0.20;75.00;;;;;;5045501;28;20471;-45
2022/03/06 00:47:17;;;;;;;21.57;12.20;;;-0.10;75.20;;;;;;5044223;28;20999;-45
2022/03/06 00:49:44;;;;;;;28.83;12.03;;;-0.20;75.20;;;;;;5042501;28;20492;-45
2022/03/06 00:52:12;;;;;;;19.87;11.07;;;-0.20;75.10;;;;;;5044498;28;21332;-45
2022/03/06 00:54:40;;;;;;;20.27;11.13;;;-0.20;75.20;;;;;;5044811;28;20494;-45
2022/03/06 00:57:07;;;;;;;26.40;12.07;;;-0.20;75.20;;;;;;5043508;28;20502;-45
2022/03/06 00:59:35;;;;;;;24.33;11.63;;;-0.20;75.20;;;;;;5043965;28;20731;-45
2022/03/06 01:02:03;;;;;;;22.07;10.33;;;-0.30;75.30;;;;;;5045406;28;21003;-44
2022/03/06 01:04:29;;;;;;;30.87;11.50;;;-0.40;75.60;;;;;;5044060;28;21900;-45
2022/03/06 01:06:56;;;;;;;24.53;10.43;;;-0.40;76.10;;;;;;5045175;28;20470;-46
2022/03/06 01:09:23;;;;;;;21.33;13.50;;;-0.50;76.40;;;;;;5042286;28;20488;-45
2022/03/06 01:11:51;;;;;;;32.93;12.53;;;-0.50;76.80;;;;;;5042484;28;20466;-45
2022/03/06 01:14:18;;;;;;;22.80;12.20;;;-0.40;76.90;;;;;;5035824;28;21038;-45
2022/03/06 01:16:45;;;;;;;16.63;10.73;;;-0.40;76.80;;;;;;5045505;28;20484;-45
2022/03/06 01:19:12;;;;;;;34.40;12.07;;;-0.40;76.80;;;;;;5043267;28;20841;-45
2022/03/06 01:21:38;;;;;;;24.43;13.33;;;-0.40;76.50;;;;;;5044099;28;20487;-45
2022/03/06 01:24:05;;;;;;;22.33;12.50;;;-0.30;76.30;;;;;;5045516;28;20487;-45
2022/03/06 01:26:32;;;;;;;31.03;13.60;;;-0.30;76.10;;;;;;5044648;28;21898;-46
2022/03/06 01:29:00;;;;;;;21.87;11.63;;;-0.30;76.00;;;;;;5044284;28;20489;-46
2022/03/06 01:31:27;;;;;;;21.37;12.10;;;-0.30;75.90;;;;;;5044385;28;20471;-45
2022/03/06 01:33:54;;;;;;;21.23;9.90;;;-0.40;75.90;;;;;;5045957;28;20475;-45
2022/03/06 01:36:20;;;;;;;15.27;9.30;;;-0.40;76.00;;;;;;5046023;28;20906;-45
2022/03/06 01:38:47;;;;;;;21.27;11.33;;;-0.40;76.10;;;;;;5028250;28;21164;-45
2022/03/06 01:41:14;;;;;;;30.47;11.33;;;-0.50;76.30;;;;;;5044198;28;20487;-45
2022/03/06 01:43:40;;;;;;;20.77;11.60;;;-0.50;76.40;;;;;;5044419;28;20836;-46
2022/03/06 01:46:08;;;;;;;19.60;11.33;;;-0.50;76.50;;;;;;5044445;28;20476;-45
2022/03/06 01:48:35;;;;;;;30.37;11.67;;;-0.50;76.50;;;;;;5041604;28;21016;-45
2022/03/06 01:51:02;;;;;;;20.50;11.90;;;-0.50;76.30;;;;;;5043193;28;21020;-46
2022/03/06 01:53:29;;;;;;;23.60;11.10;;;-0.50;76.40;;;;;;5045324;28;20480;-45
2022/03/06 01:55:55;;;;;;;25.43;12.23;;;-0.40;76.10;;;;;;5044115;28;20488;-46
2022/03/06 01:58:22;;;;;;;18.60;11.93;;;-0.40;75.90;;;;;;5045020;28;20476;-45
2022/03/06 02:00:50;;;;;;;29.30;10.90;;;-0.30;75.70;;;;;;5026357;28;20488;-45
2022/03/06 02:03:19;;;;;;;24.90;10.73;;;-0.30;76.00;;;;;;5043327;28;20854;-46
2022/03/06 02:05:48;;;;;;;13.70;9.37;;;-0.30;75.50;;;;;;5042190;28;21002;-45
2022/03/06 02:08:15;;;;;;;17.37;10.07;;;-0.40;75.40;;;;;;5043812;28;20484;-45
2022/03/06 02:10:42;;;;;;;18.20;11.50;;;-0.40;75.40;;;;;;5031533;28;21079;-45
2022/03/06 02:13:08;;;;;;;18.30;10.73;;;-0.40;75.30;;;;;;5045975;28;21073;-45
2022/03/06 02:15:35;;;;;;;15.60;9.77;;;;;;;;;;5041655;28;20487;-45
2022/03/06 02:18:02;;;;;;;16.53;8.77;;;-0.50;75.30;;;;;;5044165;28;20476;-45
2022/03/06 02:20:30;;;;;;;13.27;9.50;;;-0.60;75.40;;;;;;5037775;28;20484;-46
2022/03/06 02:22:59;;;;;;;17.07;10.40;;;-0.60;75.60;;;;;;5048909;28;20501;-46
2022/03/06 02:25:28;;;;;;;21.17;10.40;;;-0.70;75.80;;;;;;5048595;28;20484;-46
2022/03/06 02:27:56;;;;;;;32.63;12.23;;;-0.70;76.00;;;;;;5047560;28;20478;-51
2022/03/06 02:30:26;;;;;;;28.40;12.30;;;-0.70;75.90;;;;;;5046079;28;20973;-45
2022/03/06 02:32:54;;;;;;;18.43;9.90;;;-0.70;75.90;;;;;;5036656;28;20522;-45
2022/03/06 02:35:22;;;;;;;21.90;10.80;;;-0.70;75.90;;;;;;5046580;28;20472;-45
2022/03/06 02:37:49;;;;;;;41.77;12.87;;;-0.70;75.90;;;;;;5047751;28;21015;-46
2022/03/06 02:40:19;;;;;;;26.07;11.10;;;-0.70;76.00;;;;;;5044622;28;21036;-45
2022/03/06 02:42:47;;;;;;;20.33;11.87;;;-0.70;76.00;;;;;;5047024;28;22008;-45
2022/03/06 02:45:16;;;;;;;24.53;11.93;;;-0.70;76.20;;;;;;5047566;28;20483;-45
2022/03/06 02:47:44;;;;;;;21.97;9.97;;;-0.80;76.00;;;;;;5044824;28;20484;-45
2022/03/06 02:50:13;;;;;;;20.83;10.37;;;-0.80;76.20;;;;;;5042336;28;20494;-46
2022/03/06 02:52:40;;;;;;;18.47;9.70;;;-0.70;76.20;;;;;;5043997;28;20614;-45
2022/03/06 02:55:09;;;;;;;23.30;13.40;;;-0.70;76.00;;;;;;5048508;28;20483;-46
2022/03/06 02:57:37;;;;;;;17.90;9.90;;;-0.70;75.90;;;;;;5047803;28;20486;-45
2022/03/06 03:00:06;;;;;;;23.53;12.70;;;-0.70;75.60;;;;;;5045351;28;20619;-45
2022/03/06 03:02:34;;;;;;;24.93;12.20;;;-0.60;75.70;;;;;;5048783;28;20572;-46
2022/03/06 03:05:00;;;;;;;24.77;9.90;;;-0.60;75.50;;;;;;5047516;28;20486;-46
2022/03/06 03:07:27;;;;;;;20.77;10.73;;;-0.60;75.30;;;;;;5046175;28;20774;-46
2022/03/06 03:09:54;;;;;;;20.13;10.17;;;-0.70;75.40;;;;;;5045308;28;20483;-45
2022/03/06 03:12:20;;;;;;;22.67;9.77;;;-0.70;75.60;;;;;;5046200;28;20477;-45
2022/03/06 03:14:48;;;;;;;21.03;10.50;;;-0.70;75.70;;;;;;5048886;28;20488;-45
2022/03/06 03:17:15;;;;;;;17.97;11.00;;;-0.70;75.60;;;;;;5047380;28;20982;-46
2022/03/06 03:19:42;;;;;;;25.40;10.87;;;-0.60;75.40;;;;;;5040849;28;20488;-45
2022/03/06 03:22:09;;;;;;;30.67;11.50;;;-0.70;75.20;;;;;;5036994;28;20493;-46
2022/03/06 03:24:35;;;;;;;20.90;11.50;;;-0.60;75.30;;;;;;5033482;28;20488;-46
2022/03/06 03:27:02;;;;;;;17.43;9.53;;;-0.70;75.20;;;;;;5033140;28;20484;-46
2022/03/06 03:29:29;;;;;;;23.67;10.93;;;-0.70;75.30;;;;;;5024502;28;20492;-46
2022/03/06 03:31:57;;;;;;;21.33;9.27;;;-0.70;75.40;;;;;;5027974;28;20504;-45
2022/03/06 03:34:23;;;;;;;26.40;11.47;;;-0.80;75.20;;;;;;5013914;28;20975;-45
2022/03/06 03:36:50;;;;;;;26.33;11.23;;;-0.70;75.10;;;;;;5052273;28;20474;-46
2022/03/06 03:39:17;;;;;;;18.17;10.63;;;-0.70;75.00;;;;;;5042588;28;20490;-45
2022/03/06 03:41:43;;;;;;;23.73;11.80;;;-0.70;75.10;;;;;;5046363;28;20503;-46
2022/03/06 03:44:10;;;;;;;19.20;9.80;;;-0.70;75.00;;;;;;5044917;28;20479;-46
2022/03/06 03:46:37;;;;;;;22.60;11.30;;;-0.70;75.00;;;;;;5047096;28;20472;-46
2022/03/06 03:49:05;;;;;;;18.30;10.03;;;-0.80;75.40;;;;;;5051652;28;20485;-46
2022/03/06 03:51:32;;;;;;;19.50;9.83;;;-0.80;75.60;;;;;;5049525;28;20794;-45
2022/03/06 03:53:59;;;;;;;21.13;10.63;;;-0.80;75.30;;;;;;5075035;28;20495;-45
2022/03/06 03:56:26;;;;;;;17.90;9.93;;;-0.80;75.40;;;;;;5045240;28;20494;-45
2022/03/06 03:58:52;;;;;;;18.20;9.77;;;-0.70;75.60;;;;;;5043237;28;20498;-45
2022/03/06 04:01:19;;;;;;;23.70;11.03;;;-0.70;75.50;;;;;;5047386;28;20512;-45
2022/03/06 04:03:46;;;;;;;19.20;11.70;;;-0.70;75.80;;;;;;5055472;28;21009;-45
2022/03/06 04:06:14;;;;;;;20.03;10.80;;;-0.70;75.80;;;;;;5056612;28;20668;-46
2022/03/06 04:08:42;;;;;;;18.20;9.87;;;-0.70;75.90;;;;;;5042658;28;20479;-45
2022/03/06 04:11:09;;;;;;;23.83;10.37;;;-0.60;75.90;;;;;;5045699;28;20806;-46
2022/03/06 04:13:35;;;;;;;25.10;10.33;;;-0.60;75.70;;;;;;5047381;28;20480;-46
2022/03/06 04:16:02;;;;;;;18.37;10.53;;;-0.60;75.50;;;;;;5045524;28;20606;-45
2022/03/06 04:18:29;;;;;;;17.07;10.60;;;-0.60;75.40;;;;;;5046007;28;20490;-45
2022/03/06 04:20:55;;;;;;;19.90;10.30;;;-0.60;75.60;;;;;;5039219;28;20742;-46
2022/03/06 04:23:23;;;;;;;21.50;11.60;;;-0.50;75.90;;;;;;5071100;28;20491;-45
2022/03/06 04:25:50;;;;;;;26.57;11.20;;;-0.50;75.90;;;;;;5045178;28;20484;-45
2022/03/06 04:28:17;;;;;;;17.10;9.57;;;-0.50;75.90;;;;;;5045889;28;20482;-46
2022/03/06 04:30:43;;;;;;;18.43;9.07;;;-0.50;75.80;;;;;;5043027;28;21322;-45
2022/03/06 04:33:11;;;;;;;22.90;11.73;;;-0.50;75.40;;;;;;5046983;28;21021;-45
2022/03/06 04:35:37;;;;;;;24.73;12.10;;;-0.50;75.40;;;;;;5044964;28;20494;-46
2022/03/06 04:38:04;;;;;;;22.30;8.63;;;-0.50;75.40;;;;;;5045274;28;20479;-46
2022/03/06 04:40:32;;;;;;;17.97;9.50;;;-0.50;75.60;;;;;;5041463;28;20476;-45
2022/03/06 04:42:59;;;;;;;20.00;9.50;;;-0.50;75.70;;;;;;5043721;28;20484;-45
2022/03/06 04:45:26;;;;;;;18.50;9.63;;;-0.50;75.50;;;;;;5039542;28;20567;-45
2022/03/06 04:47:53;;;;;;;16.70;8.97;;;-0.50;75.60;;;;;;5045044;28;20487;-45
2022/03/06 04:50:19;;;;;;;12.43;9.10;;;-0.50;75.70;;;;;;5042659;28;20859;-46
2022/03/06 04:52:46;;;;;;;19.43;10.50;;;-0.50;75.90;;;;;;5044910;28;20988;-45
2022/03/06 04:55:13;;;;;;;17.37;9.63;;;-0.50;75.70;;;;;;5043994;28;20918;-46
2022/03/06 04:57:45;;;;;;;14.50;9.10;;;-0.50;75.90;;;;;;5040603;28;20836;-46
2022/03/06 05:00:13;;;;;;;18.47;9.23;;;-0.50;75.90;;;;;;5041458;28;20476;-45
2022/03/06 05:02:40;;;;;;;17.37;10.40;;;-0.50;75.80;;;;;;5043873;28;20572;-45
2022/03/06 05:05:09;;;;;;;15.00;8.10;;;-0.50;75.70;;;;;;5044404;28;20906;-46
2022/03/06 05:07:36;;;;;;;21.70;10.23;;;-0.50;75.50;;;;;;5042259;28;20588;-46
2022/03/06 05:10:06;;;;;;;19.13;11.10;;;-0.50;75.80;;;;;;5042396;28;20859;-46
2022/03/06 05:12:33;;;;;;;25.20;11.50;;;-0.50;75.80;;;;;;5033459;28;21003;-45
2022/03/06 05:15:01;;;;;;;19.97;11.27;;;-0.50;75.70;;;;;;5033893;28;20855;-45
2022/03/06 05:17:27;;;;;;;24.43;9.97;;;-0.50;75.70;;;;;;5041558;28;20491;-45
2022/03/06 05:19:54;;;;;;;18.20;9.87;;;-0.50;75.80;;;;;;5037630;28;20472;-45
2022/03/06 05:22:21;;;;;;;16.77;10.67;;;-0.50;75.80;;;;;;5066781;28;20964;-45
2022/03/06 05:24:47;;;;;;;26.20;10.73;;;-0.40;76.40;;;;;;5044260;28;20490;-46
2022/03/06 05:27:14;;;;;;;18.00;9.77;;;-0.50;76.50;;;;;;5042435;28;20480;-46
2022/03/06 05:29:41;;;;;;;18.20;11.40;;;-0.50;76.30;;;;;;5038885;28;20491;-46
2022/03/06 05:32:09;;;;;;;24.57;10.23;;;-0.50;76.20;;;;;;5045195;28;20891;-46
2022/03/06 05:34:36;;;;;;;19.43;10.50;;;-0.40;76.50;;;;;;5042250;28;21276;-46
2022/03/06 05:37:03;;;;;;;18.30;10.90;;;-0.40;76.30;;;;;;5036165;28;20482;-46
2022/03/06 05:39:29;;;;;;;24.17;11.03;;;-0.40;76.60;;;;;;5042789;28;20494;-45
2022/03/06 05:41:56;;;;;;;13.37;9.47;;;-0.30;76.80;;;;;;5042601;28;21034;-45
2022/03/06 05:44:24;;;;;;;21.60;11.30;;;-0.30;76.90;;;;;;5041858;28;20486;-45
2022/03/06 05:46:51;;;;;;;26.97;9.77;;;-0.20;76.80;;;;;;5043941;28;20468;-46
2022/03/06 05:49:19;;;;;;;20.33;10.37;;;-0.20;76.60;;;;;;5043421;28;20487;-45
2022/03/06 05:51:46;;;;;;;14.93;10.00;;;-0.20;76.70;;;;;;5041789;28;20484;-46
2022/03/06 05:54:12;;;;;;;26.80;10.23;;;-0.10;76.70;;;;;;5044110;28;21062;-46
2022/03/06 05:56:40;;;;;;;23.13;12.37;;;-0.10;77.20;;;;;;5046675;28;20993;-45
2022/03/06 05:59:07;;;;;;;16.07;10.17;;;-0.10;77.30;;;;;;5037749;28;21090;-45
2022/03/06 06:01:33;;;;;;;23.60;10.97;;;0.00;77.30;;;;;;5047818;28;20495;-45
2022/03/06 06:04:01;;;;;;;23.33;10.67;;;0.00;77.20;;;;;;5042495;28;20785;-45
2022/03/06 06:06:29;;;;;;;24.70;9.70;;;0.10;77.30;;;;;;5045770;28;20491;-45
2022/03/06 06:08:56;;;;;;;25.30;10.20;;;0.10;77.20;;;;;;5045899;28;20931;-45
2022/03/06 06:11:22;;;;;;;19.70;9.93;;;0.10;77.30;;;;;;5044505;28;20859;-46
2022/03/06 06:13:49;;;;;;;24.97;11.90;;;0.20;77.50;;;;;;5043307;28;20481;-45
2022/03/06 06:16:16;;;;;;;26.43;11.13;;;0.20;77.60;;;;;;5044732;28;20525;-46
2022/03/06 06:18:43;;;;;;;21.53;10.70;;;0.30;77.50;;;;;;5043126;28;20562;-46
2022/03/06 06:21:11;;;;;;;27.17;13.10;;;0.30;77.60;;;;;;5047074;28;20487;-46
2022/03/06 06:23:39;;;;;;;27.67;11.67;;;0.40;77.70;;;;;;5042712;28;20480;-46
2022/03/06 06:26:06;;;;;;;26.00;12.93;;;0.40;77.70;;;;;;5046249;28;20481;-46
2022/03/06 06:28:32;;;;;;;21.00;12.40;;;0.40;78.10;;;;;;5043879;28;20487;-46
2022/03/06 06:30:59;;;;;;;33.10;13.03;;;0.40;78.30;;;;;;5045291;28;20487;-46
2022/03/06 06:33:26;;;;;;;22.80;12.33;;;0.40;78.30;;;;;;5044333;28;20490;-46
2022/03/06 06:35:52;;;;;;;18.77;11.00;;;0.50;78.20;;;;;;5044598;28;20482;-46
2022/03/06 06:38:20;;;;;;;25.47;10.70;;;0.50;77.80;;;;;;5046326;28;20499;-46
2022/03/06 06:40:48;;;;;;;21.77;12.00;;;0.50;77.70;;;;;;5040063;28;20836;-46
2022/03/06 06:43:15;;;;;;;20.17;11.20;;;0.60;77.40;;;;;;5044534;28;20975;-46
2022/03/06 06:45:42;;;;;;;19.43;11.17;;;0.80;77.70;;;;;;5041587;28;20909;-46
2022/03/06 06:48:09;;;;;;;22.57;11.40;;;0.90;77.50;;;;;;5046284;28;20958;-46
2022/03/06 06:50:36;;;;;;;21.70;11.03;;;1.00;77.30;;;;;;5038414;28;20482;-46
2022/03/06 06:53:03;;;;;;;27.03;10.53;;;1.00;76.90;;;;;;5043154;28;20847;-46
2022/03/06 06:55:30;;;;;;;20.00;10.40;;;1.10;76.50;;;;;;5042157;28;21411;-46
2022/03/06 06:57:58;;;;;;;18.70;10.37;;;1.10;76.30;;;;;;5044019;28;20938;-46
2022/03/06 07:00:25;;;;;;;25.67;12.00;;;1.20;76.50;;;;;;5042405;28;20489;-46
2022/03/06 07:02:52;;;;;;;15.50;11.10;;;1.20;76.30;;;;;;5043446;28;20553;-46
2022/03/06 07:05:18;;;;;;;19.20;11.03;;;1.20;76.30;;;;;;5044772;28;20908;-46
2022/03/06 07:07:45;;;;;;;19.30;10.00;;;1.40;76.50;;;;;;5040452;28;20476;-46
2022/03/06 07:10:12;;;;;;;15.80;10.77;;;2.10;78.10;;;;;;5040633;28;20483;-47
2022/03/06 07:12:43;;;;;;;21.60;13.00;;;2.90;78.60;;;;;;5043324;28;20483;-46
2022/03/06 07:15:13;;;;;;;29.27;13.27;;;4.40;76.00;;;;;;5030260;28;20938;-46
2022/03/06 07:17:40;;;;;;;25.53;11.40;;;5.40;74.00;;;;;;5036964;28;20487;-47
2022/03/06 07:20:08;;;;;;;19.60;12.67;;;6.80;71.40;;;;;;5038398;28;20473;-46
2022/03/06 07:22:35;;;;;;;22.37;13.33;;;7.70;69.00;;;;;;5039834;28;20479;-46
2022/03/06 07:25:02;;;;;;;23.03;12.20;;;8.50;67.00;;;;;;5055682;28;20483;-47
2022/03/06 07:27:28;;;;;;;23.47;12.63;;;9.60;64.10;;;;;;5050196;28;20490;-46
2022/03/06 07:29:56;;;;;;;20.17;12.43;;;10.30;62.00;;;;;;5040303;28;20484;-47
2022/03/06 07:32:24;;;;;;;32.43;12.30;;;10.80;61.50;;;;;;5061154;28;20480;-46
2022/03/06 07:34:51;;;;;;;23.10;12.07;;;11.30;59.60;;;;;;5065973;28;20834;-46
2022/03/06 07:37:18;;;;;;;20.83;12.17;;;11.80;59.70;;;;;;5049169;28;21106;-46
2022/03/06 07:39:45;;;;;;;17.37;11.50;;;12.10;58.60;;;;;;5054140;28;21280;-48
2022/03/06 07:42:11;;;;;;;24.00;14.10;;;12.00;56.60;;;;;;5053688;28;20499;-47
2022/03/06 07:44:38;;;;;;;18.50;12.07;;;11.50;56.40;;;;;;5040947;28;20478;-46
2022/03/06 07:47:05;;;;;;;24.67;12.43;;;10.80;56.70;;;;;;5042035;28;20466;-46
2022/03/06 07:49:33;;;;;;;17.90;12.30;;;10.40;58.00;;;;;;5039722;28;20482;-47
2022/03/06 07:52:00;;;;;;;18.60;11.73;;;10.60;59.10;;;;;;5043424;28;21068;-46
2022/03/06 07:54:27;;;;;;;22.60;12.27;;;10.30;58.00;;;;;;5044818;28;20484;-47
2022/03/06 07:56:53;;;;;;;21.53;12.83;;;9.80;58.40;;;;;;5039624;28;20488;-47
2022/03/06 07:59:21;;;;;;;17.20;11.17;;;9.40;59.20;;;;;;5043102;28;20484;-46
2022/03/06 08:01:48;;;;;;;21.23;12.87;;;8.90;59.90;;;;;;5044353;28;20951;-47
2022/03/06 08:04:14;;;;;;;19.43;12.57;;;8.60;62.10;;;;;;5044991;28;21006;-46
2022/03/06 08:06:42;;;;;;;15.87;11.77;;;8.50;62.30;;;;;;5041844;28;20488;-46
2022/03/06 08:09:09;;;;;;;15.53;11.50;;;8.30;63.00;;;;;;5041252;28;20482;-47
2022/03/06 08:11:36;;;;;;;18.43;11.23;;;8.50;63.70;;;;;;5042900;28;20496;-47
2022/03/06 08:14:02;;;;;;;24.83;12.87;;;8.40;62.70;;;;;;5046352;28;20481;-47
2022/03/06 08:16:29;;;;;;;18.00;11.13;;;8.30;62.80;;;;;;5042263;28;20472;-47
2022/03/06 08:18:56;;;;;;;18.40;12.00;;;8.80;66.80;;;;;;5040887;28;21033;-47
2022/03/06 08:21:22;;;;;;;25.40;10.60;;;9.90;65.40;;;;;;5045061;28;20485;-47
2022/03/06 08:23:51;;;;;;;19.43;12.10;;;10.00;64.20;;;;;;5041915;28;20846;-47
2022/03/06 08:26:18;;;;;;;18.73;11.70;;;11.50;60.00;;;;;;5043098;28;21122;-47
2022/03/06 08:28:45;;;;;;;21.00;11.50;;;12.00;59.60;;;;;;5037505;28;20843;-47
2022/03/06 08:31:11;;;;;;;17.03;10.33;;;12.30;59.40;;;;;;5066812;28;20489;-47
2022/03/06 08:33:38;;;;;;;18.73;11.10;;;12.50;56.80;;;;;;5040124;28;20493;-47
2022/03/06 08:36:05;;;;;;;14.90;10.40;;;12.30;56.30;;;;;;5040982;28;20492;-46
2022/03/06 08:38:32;;;;;;;25.53;10.87;;;12.10;56.60;;;;;;5039783;28;20480;-46
2022/03/06 08:41:00;;;;;;;17.50;10.73;;;11.60;57.80;;;;;;5041273;28;20519;-47
2022/03/06 08:43:27;;;;;;;16.80;10.87;;;11.30;57.20;;;;;;5043285;28;21066;-46
2022/03/06 08:45:54;;;;;;;17.17;11.10;;;11.10;58.50;;;;;;5045013;28;20489;-46
2022/03/06 08:48:21;;;;;;;15.20;8.57;;;10.90;57.60;;;;;;5056719;28;20824;-45
2022/03/06 08:50:49;;;;;;;19.30;11.00;;;10.90;57.60;;;;;;5046553;28;20514;-46
2022/03/06 08:53:15;;;;;;;17.53;10.23;;;10.80;57.90;;;;;;5041075;28;20480;-46
2022/03/06 08:55:42;;;;;;;20.07;11.10;;;11.00;58.90;;;;;;5041365;28;20864;-46
2022/03/06 08:58:10;;;;;;;26.00;11.60;;;10.80;59.00;;;;;;5042517;28;20489;-46
2022/03/06 09:00:37;;;;;;;15.90;10.80;;;10.80;59.40;;;;;;5036523;28;20492;-46
2022/03/06 09:03:04;;;;;;;18.20;10.80;;;10.90;59.60;;;;;;5041254;28;20478;-46
2022/03/06 09:05:31;;;;;;;16.53;10.50;;;10.80;58.20;;;;;;5040174;28;20487;-46
2022/03/06 09:07:57;;;;;;;16.17;10.10;;;10.90;58.80;;;;;;5041685;28;20485;-46
2022/03/06 09:10:24;;;;;;;21.30;9.40;;;10.70;57.30;;;;;;5035850;28;20541;-46
2022/03/06 09:12:51;;;;;;;19.90;12.13;;;10.70;57.80;;;;;;5040890;28;20667;-46
2022/03/06 09:15:19;;;;;;;16.63;11.17;;;10.50;57.10;;;;;;5041362;28;20913;-46
2022/03/06 09:17:46;;;;;;;22.23;12.50;;;10.30;58.30;;;;;;5041835;28;20482;-46
2022/03/06 09:20:13;;;;;;;13.87;8.63;;;10.30;58.20;;;;;;5040493;28;20816;-46
2022/03/06 09:22:40;;;;;;;18.60;10.87;;;10.10;57.00;;;;;;5041146;28;20485;-46
2022/03/06 09:25:07;;;;;;;12.17;8.70;;;9.90;58.40;;;;;;5042684;28;21048;-46
2022/03/06 09:27:35;;;;;;;18.13;11.73;;;9.80;58.70;;;;;;5042416;28;20485;-46
2022/03/06 09:30:02;;;;;;;16.93;10.80;;;9.70;58.50;;;;;;5045781;28;20521;-46
2022/03/06 09:32:30;;;;;;;20.20;11.40;;;9.60;58.90;;;;;;5051978;28;21354;-45
2022/03/06 09:34:56;;;;;;;23.30;11.73;;;9.60;58.70;;;;;;5041195;28;20788;-46
2022/03/06 09:37:23;;;;;;;14.43;9.40;;;9.60;58.80;;;;;;5042760;28;20492;-45
2022/03/06 09:39:50;;;;;;;14.37;10.33;;;9.40;58.10;;;;;;5040963;28;20877;-46
2022/03/06 09:42:17;;;;;;;17.60;10.30;;;9.40;58.70;;;;;;5042507;28;20492;-45
2022/03/06 09:44:46;;;;;;;37.80;10.13;;;9.50;59.00;;;;;;5041111;28;21129;-45
2022/03/06 09:47:14;;;;;;;29.73;11.60;;;9.70;59.20;;;;;;5039942;28;20539;-46
2022/03/06 09:49:44;;;;;;;19.10;10.80;;;10.00;59.10;;;;;;5039554;28;20484;-46
2022/03/06 09:52:12;;;;;;;22.60;13.50;;;10.10;57.90;;;;;;5042346;28;20482;-46
2022/03/06 09:54:39;;;;;;;19.10;9.97;;;10.00;54.20;;;;;;5039667;28;20493;-46
2022/03/06 09:57:06;;;;;;;14.07;8.37;;;10.00;55.20;;;;;;5065586;28;20489;-46
2022/03/06 09:59:34;;;;;;;13.87;8.40;;;9.80;55.90;;;;;;5040576;28;20480;-46
2022/03/06 10:02:01;;;;;;;20.80;9.97;;;9.50;55.60;;;;;;5045284;28;20720;-46
2022/03/06 10:04:30;;;;;;;15.63;9.53;;;9.40;56.90;;;;;;5051500;28;20488;-46
2022/03/06 10:07:07;;;;;;;17.13;9.60;;;9.20;56.80;;;;;;5038989;28;20592;-47
2022/03/06 10:09:35;;;;;;;15.73;10.67;;;9.20;56.80;;;;;;5036849;28;20835;-46
2022/03/06 10:12:02;;;;;;;17.50;10.47;;;9.10;56.90;;;;;;5040245;28;21103;-46
2022/03/06 10:14:37;;;;;;;17.67;10.40;;;8.70;56.70;;;;;;5041738;28;20998;-46
2022/03/06 10:17:11;;;;;;;14.00;7.90;;;8.70;57.60;;;;;;5041228;28;20467;-46
2022/03/06 10:19:49;;;;;;;16.17;9.83;;;8.60;58.30;;;;;;5038921;28;20473;-46
2022/03/06 10:22:17;;;;;;;22.17;11.10;;;8.70;58.60;;;;;;5040777;28;20901;-46
2022/03/06 10:24:48;;;;;;;18.13;9.73;;;8.80;58.20;;;;;;5042438;28;20704;-47
2022/03/06 10:27:16;;;;;;;14.37;7.37;;;8.90;59.00;;;;;;5041728;28;20486;-46
2022/03/06 10:29:43;;;;;;;16.00;9.87;;;8.90;57.40;;;;;;5038743;28;20920;-46
2022/03/06 10:32:10;;;;;;;20.77;12.27;;;8.90;57.00;;;;;;5039101;28;20485;-46
2022/03/06 10:34:38;;;;;;;20.50;10.60;;;9.10;56.50;;;;;;5040087;28;20484;-49
2022/03/06 10:37:06;;;;;;;16.80;9.30;;;9.00;55.80;;;;;;5036715;28;20933;-46
2022/03/06 10:39:44;;;;;;;10.60;6.10;;;8.90;55.40;;;;;;5039318;28;20838;-46
2022/03/06 10:42:11;;;;;;;20.60;10.27;;;8.80;56.40;;;;;;5042890;28;20483;-46
2022/03/06 10:44:46;;;;;;;14.07;9.27;;;8.80;56.60;;;;;;5044245;28;20598;-47
2022/03/06 10:47:12;;;;;;;16.17;9.00;;;8.60;55.60;;;;;;5046069;28;20932;-46
2022/03/06 10:49:39;;;;;;;18.77;10.83;;;8.50;56.20;;;;;;5044729;28;20887;-46
2022/03/06 10:52:17;;;;;;;11.30;5.67;;;8.50;56.20;;;;;;5046493;28;20476;-46
2022/03/06 10:54:52;;;;;;;13.77;9.13;;;8.50;56.20;;;;;;5049254;28;20472;-46
2022/03/06 10:57:19;;;;;;;19.30;10.73;;;8.50;55.10;;;;;;5047122;28;20482;-46
2022/03/06 10:59:46;;;;;;;22.70;10.67;;;8.60;55.00;;;;;;5045184;28;21413;-46
2022/03/06 11:02:13;;;;;;;14.87;8.77;;;8.60;55.00;;;;;;5045490;28;20486;-46
2022/03/06 11:04:41;;;;;;;10.73;7.53;;;8.40;55.00;;;;;;5044741;28;20510;-47
2022/03/06 11:07:08;;;;;;;16.50;9.50;;;8.50;56.30;;;;;;5041047;28;20475;-46
2022/03/06 11:09:37;;;;;;;13.87;9.70;;;8.50;54.80;;;;;;5046882;28;20477;-46
2022/03/06 11:12:06;;;;;;;19.40;10.03;;;8.40;55.50;;;;;;5048568;28;20755;-47
2022/03/06 11:14:33;;;;;;;17.30;7.30;;;8.40;55.40;;;;;;5046550;28;20481;-46
2022/03/06 11:17:01;;;;;;;10.50;7.03;;;8.30;54.60;;;;;;5047846;28;20515;-47
2022/03/06 11:19:28;;;;;;;12.80;8.03;;;8.50;55.00;;;;;;5045437;28;20493;-46
2022/03/06 11:22:03;;;;;;;18.13;8.60;;;8.70;56.00;;;;;;5047927;28;20572;-46
2022/03/06 11:24:31;;;;;;;18.30;9.80;;;8.90;55.40;;;;;;5042487;28;20877;-46
2022/03/06 11:27:28;;;;;;;9.57;6.10;;;9.20;55.60;;;;;;5061878;28;21407;-46
2022/03/06 11:30:07;;;;;;;19.83;9.17;;;9.50;54.70;;;;;;5031484;28;20823;-47
2022/03/06 11:32:36;;;;;;;16.77;9.80;;;9.70;54.30;;;;;;5055531;28;21315;-47
2022/03/06 11:35:07;;;;;;;14.10;9.50;;;9.80;53.40;;;;;;5060005;28;21075;-46
2022/03/06 11:37:51;;;;;;;18.63;9.87;;;10.10;55.00;;;;;;5046569;28;20994;-47
2022/03/06 11:40:38;;;;;;;16.80;9.47;;;10.10;52.70;;;;;;5045247;28;20480;-47
2022/03/06 11:43:07;;;;;;;9.20;6.30;;;10.10;52.90;;;;;;5046724;28;20482;-46
2022/03/06 11:45:48;;;;;;;17.33;10.00;;;10.00;52.50;;;;;;5047008;28;20482;-47
2022/03/06 11:49:04;;;;;;;12.37;8.23;;;9.90;53.20;;;;;;5045362;28;20690;-46
2022/03/06 11:51:33;;;;;;;8.90;6.40;;;10.00;54.30;;;;;;5043638;28;21048;-46
2022/03/06 11:54:02;;;;;;;15.27;8.63;;;10.00;52.80;;;;;;5043441;28;20496;-47
2022/03/06 11:56:58;;;;;;;17.37;11.37;;;10.00;51.30;;;;;;5046365;28;20975;-46
2022/03/06 11:59:44;;;;;;;13.67;9.30;;;10.00;50.60;;;;;;5042690;28;20480;-46
2022/03/06 12:02:19;;;;;;;10.83;7.77;;;10.20;53.30;;;;;;5064204;28;20481;-46
2022/03/06 12:04:55;;;;;;;21.60;12.30;;;10.30;52.10;;;;;;5046510;28;20927;-46
2022/03/06 12:07:24;;;;;;;14.20;6.73;;;10.40;51.80;;;;;;5045826;28;20477;-45
2022/03/06 12:09:53;;;;;;;15.90;9.50;;;10.30;51.30;;;;;;5043432;28;20481;-46
2022/03/06 12:12:21;;;;;;;15.80;8.30;;;10.40;52.30;;;;;;5046775;28;20484;-46
2022/03/06 12:14:50;;;;;;;14.93;8.90;;;10.50;52.90;;;;;;5046856;28;20600;-45
2022/03/06 12:17:35;;;;;;;7.77;4.53;;;10.40;51.30;;;;;;5044727;28;20521;-46
2022/03/06 12:20:28;;;;;;;14.27;9.03;;;10.00;48.60;;;;;;5033019;28;20476;-46
2022/03/06 12:23:07;;;;;;;15.73;10.57;;;10.20;52.00;;;;;;5051427;28;20477;-45
2022/03/06 12:25:36;;;;;;;16.50;10.40;;;10.30;52.10;;;;;;5048025;28;20474;-47
2022/03/06 12:28:37;;;;;;;15.93;9.47;;;10.40;52.50;;;;;;5046678;28;20485;-46
2022/03/06 12:31:32;;;;;;;23.67;11.50;;;10.80;51.80;;;;;;5045430;28;20485;-46
2022/03/06 12:33:59;;;;;;;16.03;10.50;;;10.80;51.80;;;;;;5034200;28;20476;-46
2022/03/06 12:36:27;;;;;;;16.30;8.93;;;10.80;51.30;;;;;;5041179;28;20490;-47
2022/03/06 12:38:58;;;;;;;11.70;9.00;;;10.70;51.30;;;;;;5042244;28;20494;-46